AFL527 UUEE-ULLI
Flight info
| Callsign | AFL527 |
|---|---|
| Flight time | 1h 14m |
| Altitude | 36000 |
| Route | TOKNU L4 NUDKO T561 ODATI T875 GENPA |
| Aircraft | A333/H-SDE3GHIJ2J3J5M1RVWXY/LB2D1 |
Departure
| Time | 2026-05-07 12:05 |
|---|---|
| Airport | Sheremetyevo International Airport (UUEE) |
Arrival
| Time | 2026-05-07 13:19 |
|---|---|
| Airport | Pulkovo Airport (ULLI) |
| Time | Latitude | Longitude | Altitude | Speed | Heading |
|---|---|---|---|---|---|
| 2026-05-07 11:45 | 55.97937 | 37.41865 | 623 ft | 0 kts | 255° |
| 2026-05-07 11:54 | 55.97937 | 37.41869 | 623 ft | 1 kts | 256° |
| 2026-05-07 11:54 | 55.97940 | 37.41895 | 623 ft | 2 kts | 258° |
| 2026-05-07 11:55 | 55.97942 | 37.41911 | 622 ft | 2 kts | 254° |
| 2026-05-07 11:55 | 55.97947 | 37.41936 | 622 ft | 2 kts | 235° |
| 2026-05-07 11:55 | 55.97957 | 37.41956 | 621 ft | 2 kts | 219° |
| 2026-05-07 11:55 | 55.97969 | 37.41971 | 621 ft | 2 kts | 204° |
| 2026-05-07 11:56 | 55.97982 | 37.41980 | 621 ft | 2 kts | 188° |
| 2026-05-07 11:56 | 55.97997 | 37.41982 | 621 ft | 2 kts | 173° |
| 2026-05-07 11:56 | 55.98006 | 37.41980 | 621 ft | 1 kts | 163° |
| 2026-05-07 11:56 | 55.98010 | 37.41978 | 621 ft | 0 kts | 164° |
| 2026-05-07 11:59 | 55.98009 | 37.41978 | 621 ft | 0 kts | 164° |
| 2026-05-07 11:59 | 55.97978 | 37.41994 | 621 ft | 8 kts | 164° |
| 2026-05-07 11:59 | 55.97913 | 37.42026 | 620 ft | 5 kts | 165° |
| 2026-05-07 12:00 | 55.97911 | 37.42027 | 620 ft | 3 kts | 165° |
| 2026-05-07 12:00 | 55.97860 | 37.42051 | 620 ft | 9 kts | 165° |
| 2026-05-07 12:00 | 55.97796 | 37.42081 | 619 ft | 9 kts | 165° |
| 2026-05-07 12:01 | 55.97732 | 37.42111 | 618 ft | 9 kts | 165° |
| 2026-05-07 12:01 | 55.97687 | 37.42179 | 617 ft | 8 kts | 107° |
| 2026-05-07 12:01 | 55.97697 | 37.42303 | 617 ft | 13 kts | 75° |
| 2026-05-07 12:01 | 55.97728 | 37.42518 | 615 ft | 21 kts | 75° |
| 2026-05-07 12:02 | 55.97767 | 37.42781 | 613 ft | 22 kts | 76° |
| 2026-05-07 12:02 | 55.97803 | 37.43035 | 614 ft | 20 kts | 75° |
| 2026-05-07 12:02 | 55.97840 | 37.43279 | 616 ft | 19 kts | 74° |
| 2026-05-07 12:02 | 55.97875 | 37.43500 | 618 ft | 18 kts | 75° |
| 2026-05-07 12:03 | 55.97905 | 37.43713 | 621 ft | 15 kts | 75° |
| 2026-05-07 12:03 | 55.97930 | 37.43885 | 622 ft | 13 kts | 75° |
| 2026-05-07 12:03 | 55.97924 | 37.44027 | 622 ft | 11 kts | 144° |
| 2026-05-07 12:03 | 55.97850 | 37.44064 | 621 ft | 11 kts | 169° |
| 2026-05-07 12:04 | 55.97783 | 37.44033 | 619 ft | 10 kts | 231° |
| 2026-05-07 12:04 | 55.97773 | 37.43988 | 619 ft | 0 kts | 256° |
| 2026-05-07 12:04 | 55.97754 | 37.43857 | 619 ft | 43 kts | 255° |
| 2026-05-07 12:04 | 55.97585 | 37.42726 | 613 ft | 141 kts | 257° |
| 2026-05-07 12:05 | 55.97278 | 37.40660 | 931 ft | 196 kts | 253° |
| 2026-05-07 12:05 | 55.96927 | 37.38112 | 1681 ft | 236 kts | 255° |
| 2026-05-07 12:05 | 55.96579 | 37.35294 | 2516 ft | 220 kts | 257° |
| 2026-05-07 12:05 | 55.96304 | 37.32613 | 3260 ft | 237 kts | 260° |
| 2026-05-07 12:06 | 55.96041 | 37.29506 | 4192 ft | 273 kts | 261° |
| 2026-05-07 12:06 | 55.95707 | 37.26027 | 5288 ft | 298 kts | 258° |
| 2026-05-07 12:06 | 55.95275 | 37.22340 | 6480 ft | 316 kts | 256° |
| 2026-05-07 12:06 | 55.94773 | 37.18574 | 7734 ft | 326 kts | 255° |
| 2026-05-07 12:07 | 55.94203 | 37.14606 | 9085 ft | 343 kts | 255° |
| 2026-05-07 12:07 | 55.93569 | 37.10463 | 10641 ft | 358 kts | 254° |
| 2026-05-07 12:07 | 55.92913 | 37.06219 | 12323 ft | 365 kts | 256° |
| 2026-05-07 12:07 | 55.92334 | 37.01856 | 13931 ft | 372 kts | 257° |
| 2026-05-07 12:08 | 55.91746 | 36.97422 | 15521 ft | 376 kts | 257° |
| 2026-05-07 12:08 | 55.91227 | 36.92972 | 17128 ft | 375 kts | 263° |
| 2026-05-07 12:08 | 55.91343 | 36.88404 | 18802 ft | 372 kts | 277° |
| 2026-05-07 12:08 | 55.91832 | 36.84000 | 20449 ft | 366 kts | 281° |
| 2026-05-07 12:09 | 55.92536 | 36.79788 | 22071 ft | 358 kts | 287° |
| 2026-05-07 12:09 | 55.93616 | 36.75938 | 23698 ft | 350 kts | 303° |
| 2026-05-07 12:09 | 55.95306 | 36.73033 | 25273 ft | 343 kts | 322° |
| 2026-05-07 12:09 | 55.97111 | 36.70554 | 26742 ft | 323 kts | 318° |
| 2026-05-07 12:10 | 55.98924 | 36.68414 | 28143 ft | 309 kts | 326° |
| 2026-05-07 12:10 | 56.00759 | 36.66826 | 29385 ft | 293 kts | 329° |
| 2026-05-07 12:10 | 56.02557 | 36.65343 | 30416 ft | 280 kts | 329° |
| 2026-05-07 12:10 | 56.04272 | 36.63933 | 31345 ft | 267 kts | 328° |
| 2026-05-07 12:11 | 56.05899 | 36.62600 | 32188 ft | 254 kts | 328° |
| 2026-05-07 12:11 | 56.07483 | 36.61303 | 32707 ft | 252 kts | 328° |
| 2026-05-07 12:11 | 56.09098 | 36.59958 | 32719 ft | 265 kts | 328° |
| 2026-05-07 12:11 | 56.10788 | 36.58515 | 32845 ft | 275 kts | 328° |
| 2026-05-07 12:12 | 56.12505 | 36.57038 | 33429 ft | 268 kts | 327° |
| 2026-05-07 12:12 | 56.14144 | 36.55630 | 34013 ft | 263 kts | 327° |
| 2026-05-07 12:12 | 56.15810 | 36.54190 | 34370 ft | 269 kts | 327° |
| 2026-05-07 12:12 | 56.17495 | 36.52711 | 34667 ft | 274 kts | 326° |
| 2026-05-07 12:13 | 56.19195 | 36.51206 | 35025 ft | 273 kts | 326° |
| 2026-05-07 12:13 | 56.20878 | 36.49708 | 35309 ft | 272 kts | 326° |
| 2026-05-07 12:13 | 56.22567 | 36.48195 | 35510 ft | 275 kts | 326° |
| 2026-05-07 12:13 | 56.24286 | 36.46643 | 35710 ft | 278 kts | 326° |
| 2026-05-07 12:14 | 56.26022 | 36.45063 | 35974 ft | 278 kts | 326° |
| 2026-05-07 12:14 | 56.27715 | 36.43516 | 36253 ft | 276 kts | 326° |
| 2026-05-07 12:14 | 56.29425 | 36.41946 | 36460 ft | 278 kts | 326° |
| 2026-05-07 12:14 | 56.31137 | 36.40356 | 36614 ft | 281 kts | 326° |
| 2026-05-07 12:15 | 56.32877 | 36.38723 | 36842 ft | 282 kts | 325° |
| 2026-05-07 12:15 | 56.34598 | 36.37091 | 37149 ft | 281 kts | 325° |
| 2026-05-07 12:15 | 56.36320 | 36.35446 | 37408 ft | 281 kts | 325° |
| 2026-05-07 12:15 | 56.38084 | 36.33927 | 37632 ft | 282 kts | 326° |
| 2026-05-07 12:16 | 56.39758 | 36.32151 | 37897 ft | 277 kts | 319° |
| 2026-05-07 12:16 | 56.41370 | 36.30103 | 37049 ft | 321 kts | 317° |
| 2026-05-07 12:16 | 56.43288 | 36.27406 | 34535 ft | 411 kts | 316° |
| 2026-05-07 12:16 | 56.45583 | 36.24066 | 33393 ft | 426 kts | 316° |
| 2026-05-07 12:17 | 56.47819 | 36.20776 | 33661 ft | 420 kts | 315° |
| 2026-05-07 12:17 | 56.50093 | 36.17335 | 32853 ft | 430 kts | 315° |
| 2026-05-07 12:17 | 56.52357 | 36.13909 | 32769 ft | 423 kts | 315° |
| 2026-05-07 12:17 | 56.54599 | 36.10511 | 33335 ft | 420 kts | 315° |
| 2026-05-07 12:18 | 56.56837 | 36.07102 | 33691 ft | 424 kts | 315° |
| 2026-05-07 12:18 | 56.59064 | 36.03713 | 34032 ft | 419 kts | 315° |
| 2026-05-07 12:18 | 56.61276 | 36.00336 | 34378 ft | 416 kts | 315° |
| 2026-05-07 12:18 | 56.63471 | 35.96982 | 34730 ft | 417 kts | 315° |
| 2026-05-07 12:19 | 56.65680 | 35.93598 | 35051 ft | 420 kts | 315° |
| 2026-05-07 12:19 | 56.67919 | 35.90161 | 35341 ft | 423 kts | 315° |
| 2026-05-07 12:19 | 56.70161 | 35.86716 | 35631 ft | 424 kts | 315° |
| 2026-05-07 12:19 | 56.72423 | 35.83238 | 35879 ft | 427 kts | 315° |
| 2026-05-07 12:20 | 56.74692 | 35.79742 | 35865 ft | 433 kts | 315° |
| 2026-05-07 12:20 | 56.79219 | 35.72753 | 35887 ft | 427 kts | 315° |
| 2026-05-07 12:21 | 56.83728 | 35.65763 | 35883 ft | 427 kts | 315° |
| 2026-05-07 12:21 | 56.88245 | 35.58740 | 35885 ft | 427 kts | 315° |
| 2026-05-07 12:22 | 56.92778 | 35.51669 | 35893 ft | 439 kts | 314° |
| 2026-05-07 12:22 | 56.97503 | 35.44272 | 35894 ft | 454 kts | 314° |
| 2026-05-07 12:23 | 57.02331 | 35.36689 | 35888 ft | 463 kts | 315° |
| 2026-05-07 12:23 | 57.07141 | 35.29111 | 35893 ft | 456 kts | 314° |
| 2026-05-07 12:24 | 57.11920 | 35.21550 | 35910 ft | 452 kts | 314° |
| 2026-05-07 12:24 | 57.16254 | 35.14673 | 35906 ft | 453 kts | 313° |
| 2026-05-07 12:25 | 57.20638 | 35.07690 | 35900 ft | 451 kts | 314° |
| 2026-05-07 12:25 | 57.25354 | 35.00155 | 35911 ft | 450 kts | 313° |
| 2026-05-07 12:26 | 57.30053 | 34.92622 | 35919 ft | 451 kts | 313° |
| 2026-05-07 12:26 | 57.34792 | 34.84995 | 35914 ft | 452 kts | 313° |
| 2026-05-07 12:27 | 57.39503 | 34.77390 | 35911 ft | 452 kts | 313° |
| 2026-05-07 12:27 | 57.44228 | 34.69731 | 35911 ft | 453 kts | 313° |
| 2026-05-07 12:28 | 57.48948 | 34.62054 | 35902 ft | 453 kts | 313° |
| 2026-05-07 12:28 | 57.53661 | 34.54362 | 35904 ft | 454 kts | 313° |
| 2026-05-07 12:29 | 57.58364 | 34.46658 | 35903 ft | 454 kts | 313° |
| 2026-05-07 12:29 | 57.63068 | 34.38927 | 35908 ft | 454 kts | 313° |
| 2026-05-07 12:30 | 57.67813 | 34.31099 | 35915 ft | 455 kts | 312° |
| 2026-05-07 12:30 | 57.72527 | 34.23295 | 35924 ft | 455 kts | 312° |
| 2026-05-07 12:31 | 57.77224 | 34.15490 | 35921 ft | 455 kts | 312° |
| 2026-05-07 12:31 | 57.81941 | 34.07623 | 35931 ft | 454 kts | 312° |
| 2026-05-07 12:32 | 57.86623 | 33.99783 | 35938 ft | 455 kts | 312° |
| 2026-05-07 12:32 | 57.91351 | 33.91842 | 35936 ft | 456 kts | 312° |
| 2026-05-07 12:33 | 57.98387 | 33.79965 | 35936 ft | 456 kts | 312° |
| 2026-05-07 12:33 | 58.03095 | 33.71983 | 35938 ft | 456 kts | 312° |
| 2026-05-07 12:34 | 58.07786 | 33.63996 | 35947 ft | 457 kts | 312° |
| 2026-05-07 12:34 | 58.12466 | 33.56003 | 35942 ft | 455 kts | 311° |
| 2026-05-07 12:35 | 58.17130 | 33.48009 | 35956 ft | 454 kts | 311° |
| 2026-05-07 12:35 | 58.21800 | 33.39970 | 35934 ft | 457 kts | 311° |
| 2026-05-07 12:36 | 58.26474 | 33.31901 | 35950 ft | 454 kts | 311° |
| 2026-05-07 12:36 | 58.31097 | 33.23884 | 35956 ft | 453 kts | 310° |
| 2026-05-07 12:37 | 58.35738 | 33.15809 | 35951 ft | 455 kts | 310° |
| 2026-05-07 12:37 | 58.40357 | 33.07746 | 35906 ft | 447 kts | 310° |
| 2026-05-07 12:38 | 58.42619 | 33.03787 | 35391 ft | 447 kts | 310° |
| 2026-05-07 12:38 | 58.44899 | 32.99783 | 34535 ft | 448 kts | 310° |
| 2026-05-07 12:38 | 58.47208 | 32.95724 | 33517 ft | 449 kts | 310° |
| 2026-05-07 12:38 | 58.49472 | 32.91734 | 32440 ft | 451 kts | 309° |
| 2026-05-07 12:39 | 58.51756 | 32.87704 | 31334 ft | 452 kts | 309° |
| 2026-05-07 12:39 | 58.54060 | 32.83631 | 30533 ft | 445 kts | 309° |
| 2026-05-07 12:39 | 58.56281 | 32.79709 | 30491 ft | 425 kts | 309° |
| 2026-05-07 12:39 | 58.58404 | 32.75949 | 30515 ft | 407 kts | 309° |
| 2026-05-07 12:40 | 58.60444 | 32.72329 | 30487 ft | 390 kts | 308° |
| 2026-05-07 12:40 | 58.62385 | 32.68872 | 30449 ft | 375 kts | 308° |
| 2026-05-07 12:40 | 58.64249 | 32.65550 | 30418 ft | 362 kts | 308° |
| 2026-05-07 12:40 | 58.66004 | 32.62415 | 30382 ft | 349 kts | 307° |
| 2026-05-07 12:41 | 58.68027 | 32.58794 | 30207 ft | 338 kts | 307° |
| 2026-05-07 12:41 | 58.69728 | 32.55745 | 29856 ft | 335 kts | 307° |
| 2026-05-07 12:41 | 58.71411 | 32.52715 | 29387 ft | 335 kts | 307° |
| 2026-05-07 12:42 | 58.73109 | 32.49670 | 29033 ft | 332 kts | 307° |
| 2026-05-07 12:42 | 58.74781 | 32.46661 | 28772 ft | 326 kts | 307° |
| 2026-05-07 12:42 | 58.76426 | 32.43697 | 28357 ft | 325 kts | 307° |
| 2026-05-07 12:42 | 58.78050 | 32.40763 | 27938 ft | 325 kts | 307° |
| 2026-05-07 12:43 | 58.79697 | 32.37794 | 27633 ft | 320 kts | 307° |
| 2026-05-07 12:43 | 58.81312 | 32.34871 | 27160 ft | 321 kts | 306° |
| 2026-05-07 12:43 | 58.82928 | 32.31947 | 26786 ft | 319 kts | 306° |
| 2026-05-07 12:43 | 58.84527 | 32.29045 | 26402 ft | 318 kts | 306° |
| 2026-05-07 12:44 | 58.86126 | 32.26146 | 26151 ft | 312 kts | 306° |
| 2026-05-07 12:44 | 58.87683 | 32.23313 | 25741 ft | 312 kts | 306° |
| 2026-05-07 12:44 | 58.89259 | 32.20446 | 25380 ft | 310 kts | 306° |
| 2026-05-07 12:44 | 58.90818 | 32.17601 | 24990 ft | 309 kts | 307° |
| 2026-05-07 12:45 | 58.92364 | 32.14778 | 24621 ft | 308 kts | 307° |
| 2026-05-07 12:45 | 58.93919 | 32.11935 | 24227 ft | 308 kts | 307° |
| 2026-05-07 12:45 | 58.95462 | 32.09114 | 23880 ft | 306 kts | 307° |
| 2026-05-07 12:45 | 58.96984 | 32.06330 | 23635 ft | 301 kts | 307° |
| 2026-05-07 12:46 | 58.98509 | 32.03529 | 23233 ft | 302 kts | 307° |
| 2026-05-07 12:46 | 59.00024 | 32.00748 | 22939 ft | 298 kts | 307° |
| 2026-05-07 12:46 | 59.01490 | 31.98061 | 22882 ft | 287 kts | 307° |
| 2026-05-07 12:46 | 59.02934 | 31.95404 | 22632 ft | 283 kts | 307° |
| 2026-05-07 12:47 | 59.04345 | 31.92796 | 22254 ft | 285 kts | 307° |
| 2026-05-07 12:47 | 59.05769 | 31.90164 | 21931 ft | 284 kts | 307° |
| 2026-05-07 12:47 | 59.07199 | 31.87522 | 21650 ft | 281 kts | 307° |
| 2026-05-07 12:47 | 59.08599 | 31.84929 | 21334 ft | 280 kts | 307° |
| 2026-05-07 12:48 | 59.09998 | 31.82338 | 21025 ft | 279 kts | 307° |
| 2026-05-07 12:48 | 59.11189 | 31.79481 | 20697 ft | 271 kts | 295° |
| 2026-05-07 12:48 | 59.12262 | 31.76380 | 20475 ft | 276 kts | 296° |
| 2026-05-07 12:48 | 59.13316 | 31.73349 | 20226 ft | 273 kts | 296° |
| 2026-05-07 12:49 | 59.14366 | 31.70312 | 19968 ft | 269 kts | 296° |
| 2026-05-07 12:49 | 59.15396 | 31.67326 | 19710 ft | 266 kts | 296° |
| 2026-05-07 12:49 | 59.16429 | 31.64323 | 19441 ft | 264 kts | 296° |
| 2026-05-07 12:49 | 59.17436 | 31.61391 | 19189 ft | 263 kts | 296° |
| 2026-05-07 12:50 | 59.18447 | 31.58440 | 18937 ft | 263 kts | 296° |
| 2026-05-07 12:50 | 59.19470 | 31.55454 | 18695 ft | 262 kts | 296° |
| 2026-05-07 12:50 | 59.20476 | 31.52513 | 18428 ft | 262 kts | 297° |
| 2026-05-07 12:50 | 59.21474 | 31.49592 | 18173 ft | 261 kts | 296° |
| 2026-05-07 12:51 | 59.22479 | 31.46642 | 17920 ft | 262 kts | 297° |
| 2026-05-07 12:51 | 59.23481 | 31.43704 | 17664 ft | 261 kts | 297° |
| 2026-05-07 12:51 | 59.24474 | 31.40785 | 17413 ft | 259 kts | 297° |
| 2026-05-07 12:51 | 59.25469 | 31.37855 | 17157 ft | 259 kts | 297° |
| 2026-05-07 12:52 | 59.26463 | 31.34924 | 16894 ft | 259 kts | 296° |
| 2026-05-07 12:52 | 59.27472 | 31.31947 | 16648 ft | 258 kts | 297° |
| 2026-05-07 12:52 | 59.28183 | 31.29851 | 16469 ft | 257 kts | 297° |
| 2026-05-07 12:52 | 59.28570 | 31.28707 | 16370 ft | 257 kts | 297° |
| 2026-05-07 12:53 | 59.29554 | 31.25796 | 16131 ft | 256 kts | 297° |
| 2026-05-07 12:53 | 59.30520 | 31.22933 | 15877 ft | 255 kts | 297° |
| 2026-05-07 12:53 | 59.31503 | 31.20021 | 15628 ft | 255 kts | 297° |
| 2026-05-07 12:53 | 59.32470 | 31.17149 | 15384 ft | 254 kts | 297° |
| 2026-05-07 12:54 | 59.33441 | 31.14262 | 15134 ft | 254 kts | 298° |
| 2026-05-07 12:54 | 59.34398 | 31.11419 | 14892 ft | 253 kts | 298° |
| 2026-05-07 12:54 | 59.35365 | 31.08537 | 14640 ft | 253 kts | 298° |
| 2026-05-07 12:54 | 59.36338 | 31.05623 | 14407 ft | 272 kts | 298° |
| 2026-05-07 12:55 | 59.37416 | 31.02391 | 14246 ft | 288 kts | 299° |
| 2026-05-07 12:55 | 59.38511 | 30.99132 | 13989 ft | 284 kts | 299° |
| 2026-05-07 12:55 | 59.39581 | 30.95926 | 13721 ft | 280 kts | 299° |
| 2026-05-07 12:55 | 59.40645 | 30.92734 | 13469 ft | 278 kts | 299° |
| 2026-05-07 12:56 | 59.41695 | 30.89577 | 13227 ft | 279 kts | 300° |
| 2026-05-07 12:56 | 59.42749 | 30.86405 | 12986 ft | 279 kts | 300° |
| 2026-05-07 12:56 | 59.43807 | 30.83219 | 12731 ft | 279 kts | 300° |
| 2026-05-07 12:56 | 59.44860 | 30.80041 | 12477 ft | 279 kts | 300° |
| 2026-05-07 12:57 | 59.45911 | 30.76862 | 12226 ft | 279 kts | 300° |
| 2026-05-07 12:57 | 59.46973 | 30.73650 | 11964 ft | 278 kts | 301° |
| 2026-05-07 12:57 | 59.48013 | 30.70500 | 11707 ft | 277 kts | 301° |
| 2026-05-07 12:57 | 59.49063 | 30.67312 | 11450 ft | 276 kts | 301° |
| 2026-05-07 12:58 | 59.50103 | 30.64151 | 11193 ft | 275 kts | 302° |
| 2026-05-07 12:58 | 59.51121 | 30.61055 | 10996 ft | 270 kts | 302° |
| 2026-05-07 12:58 | 59.52131 | 30.57984 | 11020 ft | 268 kts | 302° |
| 2026-05-07 12:58 | 59.53149 | 30.54880 | 11038 ft | 269 kts | 302° |
| 2026-05-07 12:59 | 59.54156 | 30.51802 | 11009 ft | 266 kts | 302° |
| 2026-05-07 12:59 | 59.55153 | 30.48803 | 10963 ft | 257 kts | 303° |
| 2026-05-07 12:59 | 59.56147 | 30.45861 | 10478 ft | 266 kts | 303° |
| 2026-05-07 12:59 | 59.57173 | 30.42817 | 10172 ft | 266 kts | 303° |
| 2026-05-07 13:00 | 59.58199 | 30.39777 | 10124 ft | 268 kts | 303° |
| 2026-05-07 13:00 | 59.59232 | 30.36705 | 9893 ft | 272 kts | 303° |
| 2026-05-07 13:00 | 59.60283 | 30.33565 | 9480 ft | 277 kts | 303° |
| 2026-05-07 13:00 | 59.61348 | 30.30393 | 9071 ft | 280 kts | 304° |
| 2026-05-07 13:01 | 59.62430 | 30.27163 | 8682 ft | 282 kts | 304° |
| 2026-05-07 13:01 | 59.63500 | 30.23962 | 8331 ft | 283 kts | 304° |
| 2026-05-07 13:01 | 59.64565 | 30.20777 | 8290 ft | 272 kts | 304° |
| 2026-05-07 13:01 | 59.65574 | 30.17753 | 8296 ft | 261 kts | 304° |
| 2026-05-07 13:02 | 59.66561 | 30.14792 | 8256 ft | 251 kts | 304° |
| 2026-05-07 13:02 | 59.67501 | 30.11966 | 8226 ft | 242 kts | 304° |
| 2026-05-07 13:02 | 59.68411 | 30.09229 | 8200 ft | 234 kts | 304° |
| 2026-05-07 13:02 | 59.69284 | 30.06600 | 8162 ft | 228 kts | 304° |
| 2026-05-07 13:03 | 59.70149 | 30.03988 | 7936 ft | 230 kts | 304° |
| 2026-05-07 13:03 | 59.71024 | 30.01349 | 7702 ft | 231 kts | 305° |
| 2026-05-07 13:03 | 59.71910 | 29.98669 | 7526 ft | 231 kts | 305° |
| 2026-05-07 13:03 | 59.72786 | 29.96016 | 7301 ft | 233 kts | 305° |
| 2026-05-07 13:04 | 59.73586 | 29.93147 | 6747 ft | 252 kts | 295° |
| 2026-05-07 13:04 | 59.74227 | 29.89832 | 6199 ft | 266 kts | 292° |
| 2026-05-07 13:04 | 59.74887 | 29.86299 | 5597 ft | 279 kts | 292° |
| 2026-05-07 13:04 | 59.75567 | 29.82661 | 4989 ft | 290 kts | 292° |
| 2026-05-07 13:05 | 59.76279 | 29.78842 | 4361 ft | 300 kts | 292° |
| 2026-05-07 13:05 | 59.76997 | 29.74987 | 3982 ft | 299 kts | 292° |
| 2026-05-07 13:05 | 59.77697 | 29.71197 | 3986 ft | 284 kts | 292° |
| 2026-05-07 13:05 | 59.78363 | 29.67610 | 3971 ft | 273 kts | 293° |
| 2026-05-07 13:06 | 59.79030 | 29.64159 | 3945 ft | 263 kts | 293° |
| 2026-05-07 13:06 | 59.79662 | 29.60861 | 3929 ft | 253 kts | 293° |
| 2026-05-07 13:06 | 59.80281 | 29.57619 | 3855 ft | 248 kts | 293° |
| 2026-05-07 13:06 | 59.80884 | 29.54451 | 3808 ft | 241 kts | 293° |
| 2026-05-07 13:07 | 59.81461 | 29.51416 | 3772 ft | 235 kts | 293° |
| 2026-05-07 13:07 | 59.82081 | 29.48470 | 3731 ft | 226 kts | 306° |
| 2026-05-07 13:07 | 59.83194 | 29.46461 | 3731 ft | 215 kts | 336° |
| 2026-05-07 13:07 | 59.84530 | 29.45123 | 3745 ft | 215 kts | 337° |
| 2026-05-07 13:08 | 59.85863 | 29.43775 | 3736 ft | 214 kts | 337° |
| 2026-05-07 13:08 | 59.87176 | 29.42448 | 3639 ft | 213 kts | 337° |
| 2026-05-07 13:08 | 59.88526 | 29.41333 | 3445 ft | 210 kts | 355° |
| 2026-05-07 13:08 | 59.89923 | 29.41736 | 3272 ft | 203 kts | 29° |
| 2026-05-07 13:09 | 59.91116 | 29.43146 | 3143 ft | 201 kts | 34° |
| 2026-05-07 13:09 | 59.92375 | 29.44371 | 2955 ft | 202 kts | 34° |
| 2026-05-07 13:09 | 59.93261 | 29.46441 | 2780 ft | 199 kts | 70° |
| 2026-05-07 13:09 | 59.93636 | 29.49108 | 2634 ft | 198 kts | 82° |
| 2026-05-07 13:10 | 59.93435 | 29.51775 | 2526 ft | 200 kts | 107° |
| 2026-05-07 13:10 | 59.92867 | 29.54344 | 2542 ft | 202 kts | 115° |
| 2026-05-07 13:10 | 59.92261 | 29.56857 | 2527 ft | 201 kts | 111° |
| 2026-05-07 13:10 | 59.91703 | 29.59405 | 2527 ft | 201 kts | 111° |
| 2026-05-07 13:11 | 59.91142 | 29.61941 | 2525 ft | 198 kts | 111° |
| 2026-05-07 13:11 | 59.90595 | 29.64358 | 2516 ft | 189 kts | 114° |
| 2026-05-07 13:11 | 59.90041 | 29.66612 | 2594 ft | 175 kts | 114° |
| 2026-05-07 13:11 | 59.89454 | 29.68785 | 2543 ft | 178 kts | 117° |
| 2026-05-07 13:12 | 59.88934 | 29.70967 | 2522 ft | 175 kts | 112° |
| 2026-05-07 13:12 | 59.88409 | 29.73175 | 2534 ft | 174 kts | 112° |
| 2026-05-07 13:12 | 59.87889 | 29.75279 | 2501 ft | 167 kts | 117° |
| 2026-05-07 13:12 | 59.87242 | 29.77199 | 2531 ft | 166 kts | 118° |
| 2026-05-07 13:13 | 59.86696 | 29.79207 | 2533 ft | 166 kts | 113° |
| 2026-05-07 13:13 | 59.86219 | 29.81293 | 2531 ft | 162 kts | 110° |
| 2026-05-07 13:13 | 59.85830 | 29.83239 | 2549 ft | 141 kts | 108° |
| 2026-05-07 13:13 | 59.85505 | 29.85025 | 2501 ft | 134 kts | 106° |
| 2026-05-07 13:14 | 59.85214 | 29.86748 | 2525 ft | 132 kts | 104° |
| 2026-05-07 13:14 | 59.84930 | 29.88508 | 2532 ft | 133 kts | 104° |
| 2026-05-07 13:14 | 59.84655 | 29.90272 | 2528 ft | 133 kts | 104° |
| 2026-05-07 13:14 | 59.84391 | 29.92000 | 2528 ft | 132 kts | 103° |
| 2026-05-07 13:15 | 59.84129 | 29.93747 | 2533 ft | 132 kts | 103° |
| 2026-05-07 13:15 | 59.83868 | 29.95509 | 2508 ft | 133 kts | 103° |
| 2026-05-07 13:15 | 59.83609 | 29.97261 | 2474 ft | 132 kts | 103° |
| 2026-05-07 13:15 | 59.83350 | 29.99032 | 2449 ft | 133 kts | 103° |
| 2026-05-07 13:16 | 59.83096 | 30.00765 | 2263 ft | 131 kts | 103° |
| 2026-05-07 13:16 | 59.82841 | 30.02509 | 2089 ft | 132 kts | 103° |
| 2026-05-07 13:16 | 59.82583 | 30.04268 | 1919 ft | 132 kts | 102° |
| 2026-05-07 13:16 | 59.82329 | 30.06004 | 1746 ft | 131 kts | 103° |
| 2026-05-07 13:17 | 59.82073 | 30.07743 | 1566 ft | 132 kts | 102° |
| 2026-05-07 13:17 | 59.81814 | 30.09495 | 1394 ft | 132 kts | 103° |
| 2026-05-07 13:17 | 59.81565 | 30.11203 | 1206 ft | 130 kts | 102° |
| 2026-05-07 13:17 | 59.81311 | 30.12940 | 1032 ft | 132 kts | 104° |
| 2026-05-07 13:18 | 59.81057 | 30.14656 | 854 ft | 128 kts | 105° |
| 2026-05-07 13:18 | 59.80799 | 30.16386 | 689 ft | 132 kts | 108° |
| 2026-05-07 13:18 | 59.80547 | 30.18080 | 510 ft | 134 kts | 103° |
| 2026-05-07 13:18 | 59.80294 | 30.19831 | 331 ft | 132 kts | 102° |
| 2026-05-07 13:19 | 59.80042 | 30.21549 | 163 ft | 128 kts | 102° |
| 2026-05-07 13:19 | 59.79819 | 30.23077 | 85 ft | 82 kts | 104° |
| 2026-05-07 13:19 | 59.79744 | 30.23644 | 88 ft | 25 kts | 102° |
| 2026-05-07 13:19 | 59.79668 | 30.24085 | 88 ft | 29 kts | 109° |
| 2026-05-07 13:20 | 59.79613 | 30.24442 | 88 ft | 25 kts | 107° |
| 2026-05-07 13:20 | 59.79563 | 30.24766 | 90 ft | 23 kts | 106° |
| 2026-05-07 13:20 | 59.79517 | 30.25060 | 92 ft | 20 kts | 106° |
| 2026-05-07 13:20 | 59.79489 | 30.25318 | 92 ft | 18 kts | 95° |
| 2026-05-07 13:21 | 59.79497 | 30.25565 | 92 ft | 17 kts | 80° |
| 2026-05-07 13:21 | 59.79522 | 30.25793 | 92 ft | 16 kts | 74° |
| 2026-05-07 13:21 | 59.79545 | 30.26003 | 93 ft | 14 kts | 90° |
| 2026-05-07 13:21 | 59.79525 | 30.26194 | 92 ft | 14 kts | 101° |
| 2026-05-07 13:22 | 59.79565 | 30.26331 | 92 ft | 12 kts | 17° |
| 2026-05-07 13:22 | 59.79649 | 30.26373 | 92 ft | 12 kts | 15° |
| 2026-05-07 13:22 | 59.79721 | 30.26412 | 92 ft | 9 kts | 14° |
| 2026-05-07 13:22 | 59.79783 | 30.26449 | 92 ft | 8 kts | 21° |
| 2026-05-07 13:23 | 59.79810 | 30.26488 | 92 ft | 4 kts | 56° |
| 2026-05-07 13:23 | 59.79815 | 30.26545 | 92 ft | 4 kts | 95° |
| 2026-05-07 13:23 | 59.79807 | 30.26603 | 92 ft | 4 kts | 105° |
| 2026-05-07 13:23 | 59.79800 | 30.26656 | 92 ft | 0 kts | 105° |